createdAt,value
2022-09-15T00:01:32.764Z,53.10
2022-09-15T00:03:59.454Z,53.10
2022-09-15T00:06:26.144Z,53.10
2022-09-15T00:08:52.901Z,53.10
2022-09-15T00:11:21.184Z,53.10
2022-09-15T00:13:48.077Z,53.00
2022-09-15T00:16:15.627Z,53.00
2022-09-15T00:18:42.520Z,53.00
2022-09-15T00:21:11.645Z,53.00
2022-09-15T00:23:38.577Z,53.10
2022-09-15T00:26:09.097Z,53.10
2022-09-15T00:28:35.888Z,52.80
2022-09-15T00:31:04.979Z,52.40
2022-09-15T00:33:31.728Z,52.50
2022-09-15T00:35:59.869Z,52.00
2022-09-15T00:38:26.685Z,52.00
2022-09-15T00:40:54.038Z,52.10
2022-09-15T00:43:40.750Z,52.10
2022-09-15T00:46:07.729Z,52.20
2022-09-15T00:48:34.427Z,52.20
2022-09-15T00:51:01.229Z,52.30
2022-09-15T00:53:27.929Z,52.50
2022-09-15T00:55:54.597Z,52.40
2022-09-15T00:58:44.605Z,52.60
2022-09-15T01:01:11.833Z,52.60
2022-09-15T01:03:38.525Z,52.60
2022-09-15T01:06:24.392Z,52.70
2022-09-15T01:09:00.620Z,52.70
2022-09-15T01:11:27.512Z,52.90
2022-09-15T01:13:54.206Z,52.90
2022-09-15T01:16:30.065Z,53.10
2022-09-15T01:19:16.096Z,53.10
2022-09-15T01:21:48.192Z,53.10
2022-09-15T01:24:14.881Z,53.10
2022-09-15T01:27:00.526Z,53.10
2022-09-15T01:29:33.271Z,53.10
2022-09-15T01:32:21.672Z,53.00
2022-09-15T01:35:01.217Z,53.00
2022-09-15T01:37:29.883Z,53.00
2022-09-15T01:39:56.579Z,53.00
2022-09-15T01:42:23.338Z,53.20
2022-09-15T01:44:55.058Z,52.90
2022-09-15T01:47:21.718Z,52.60
2022-09-15T01:49:59.679Z,52.30
2022-09-15T01:52:26.398Z,52.10
2022-09-15T01:54:57.481Z,51.90
2022-09-15T01:57:24.154Z,51.90
2022-09-15T01:59:51.335Z,52.00
2022-09-15T02:02:20.047Z,52.00
2022-09-15T02:04:48.413Z,52.10
2022-09-15T02:07:44.978Z,52.10
2022-09-15T02:10:13.686Z,52.20
2022-09-15T02:12:45.345Z,52.30
2022-09-15T02:15:14.512Z,52.30
2022-09-15T02:17:42.952Z,52.60
2022-09-15T02:20:10.157Z,52.50
2022-09-15T02:22:37.854Z,52.60
2022-09-15T02:25:10.132Z,52.70
2022-09-15T02:27:39.050Z,52.60
2022-09-15T02:30:09.077Z,52.80
2022-09-15T02:32:36.041Z,52.70
2022-09-15T02:35:06.642Z,52.80
2022-09-15T02:37:33.474Z,52.80
2022-09-15T02:40:00.308Z,52.80
2022-09-15T02:42:27.492Z,52.90
2022-09-15T02:44:54.183Z,52.90
2022-09-15T02:47:20.863Z,53.00
2022-09-15T02:49:47.533Z,52.90
2022-09-15T02:52:14.186Z,53.00
2022-09-15T02:54:40.843Z,53.00
2022-09-15T02:57:07.549Z,53.00
2022-09-15T02:59:52.884Z,52.80
2022-09-15T03:02:20.638Z,52.80
2022-09-15T03:04:47.718Z,52.50
2022-09-15T03:07:14.488Z,52.20
2022-09-15T03:09:41.569Z,51.90
2022-09-15T03:12:08.298Z,51.70
2022-09-15T03:14:35.514Z,51.70
2022-09-15T03:17:05.735Z,51.70
2022-09-15T03:19:32.346Z,51.80
2022-09-15T03:21:59.015Z,51.80
2022-09-15T03:24:25.752Z,51.80
2022-09-15T03:26:52.408Z,52.00
2022-09-15T03:29:19.050Z,52.10
2022-09-15T03:31:45.746Z,52.10
2022-09-15T03:34:12.389Z,53.80
2022-09-15T03:36:39.111Z,56.80
2022-09-15T03:39:05.763Z,58.10
2022-09-15T03:41:32.427Z,59.00
2022-09-15T03:44:00.276Z,59.40
2022-09-15T03:46:27.363Z,60.00
2022-09-15T03:48:54.027Z,60.20
2022-09-15T03:51:20.865Z,60.40
2022-09-15T03:53:47.553Z,60.80
2022-09-15T03:56:24.211Z,61.00
2022-09-15T03:58:50.989Z,61.40
2022-09-15T04:01:19.077Z,61.70
2022-09-15T04:03:50.617Z,62.20
2022-09-15T04:06:18.424Z,62.50
2022-09-15T04:08:45.296Z,62.40
2022-09-15T04:11:12.317Z,62.60
2022-09-15T04:13:39.234Z,63.10
2022-09-15T04:16:06.732Z,63.50
2022-09-15T04:18:33.536Z,63.50
2022-09-15T04:21:00.707Z,63.70
2022-09-15T04:23:27.580Z,63.80
2022-09-15T04:25:58.053Z,64.00
2022-09-15T04:28:25.104Z,64.30
2022-09-15T04:30:52.371Z,64.50
2022-09-15T04:33:19.208Z,64.40
2022-09-15T04:35:45.941Z,64.60
2022-09-15T04:38:12.668Z,65.00
2022-09-15T04:40:39.345Z,65.10
2022-09-15T04:43:07.104Z,65.10
2022-09-15T04:45:34.157Z,65.20
2022-09-15T04:48:00.839Z,65.30
2022-09-15T04:50:31.874Z,65.50
2022-09-15T04:52:58.523Z,65.70
2022-09-15T04:55:26.775Z,66.00
2022-09-15T04:57:53.411Z,66.00
2022-09-15T05:00:20.167Z,66.20
2022-09-15T05:02:47.529Z,65.90
2022-09-15T05:05:14.769Z,65.30
2022-09-15T05:07:43.004Z,63.50
2022-09-15T05:10:10.074Z,63.60
2022-09-15T05:12:36.814Z,62.40
2022-09-15T05:15:03.863Z,61.40
2022-09-15T05:17:31.251Z,60.40
2022-09-15T05:19:58.305Z,59.90
2022-09-15T05:22:25.332Z,59.20
2022-09-15T05:24:52.102Z,58.60
2022-09-15T05:27:18.800Z,58.40
2022-09-15T05:29:45.448Z,58.20
2022-09-15T05:32:12.125Z,58.30
2022-09-15T05:34:38.979Z,58.20
2022-09-15T05:37:05.663Z,57.90
2022-09-15T05:39:32.303Z,57.90
2022-09-15T05:41:59.780Z,57.80
2022-09-15T05:44:26.473Z,57.70
2022-09-15T05:46:53.124Z,57.70
2022-09-15T05:49:19.841Z,57.70
2022-09-15T05:51:46.479Z,57.70
2022-09-15T05:54:13.274Z,57.70
2022-09-15T05:56:39.927Z,57.60
2022-09-15T05:59:06.585Z,57.60
2022-09-15T06:01:33.336Z,57.40
2022-09-15T06:04:00.095Z,57.40
2022-09-15T06:06:26.858Z,57.30
2022-09-15T06:08:58.040Z,57.10
2022-09-15T06:11:26.445Z,57.10
2022-09-15T06:13:53.418Z,57.00
2022-09-15T06:16:21.202Z,57.10
2022-09-15T06:18:48.473Z,57.00
2022-09-15T06:21:19.200Z,56.90
2022-09-15T06:23:50.056Z,57.00
2022-09-15T06:26:18.789Z,56.90
2022-09-15T06:28:49.522Z,56.90
2022-09-15T06:31:16.267Z,56.70
2022-09-15T06:33:43.948Z,56.50
2022-09-15T06:36:14.007Z,56.30
2022-09-15T06:38:40.777Z,56.20
2022-09-15T06:41:07.494Z,55.80
2022-09-15T06:43:34.278Z,55.60
2022-09-15T06:46:02.341Z,55.40
2022-09-15T06:48:29.038Z,55.40
2022-09-15T06:50:56.024Z,55.50
2022-09-15T06:53:22.876Z,55.50
2022-09-15T06:55:49.779Z,55.50
2022-09-15T06:58:16.458Z,55.50
2022-09-15T07:00:43.179Z,55.60
2022-09-15T07:03:09.971Z,55.60
2022-09-15T07:05:36.753Z,55.60
2022-09-15T07:08:03.505Z,55.50
2022-09-15T07:10:30.155Z,55.50
2022-09-15T07:12:58.869Z,55.50
2022-09-15T07:15:27.310Z,55.50
2022-09-15T07:17:54.075Z,55.50
2022-09-15T07:20:20.791Z,55.60
2022-09-15T07:22:47.551Z,55.60
2022-09-15T07:25:14.199Z,55.70
2022-09-15T07:27:40.881Z,55.60
2022-09-15T07:30:08.612Z,55.70
2022-09-15T07:32:35.400Z,55.60
2022-09-15T07:35:02.381Z,55.70
2022-09-15T07:37:29.024Z,55.60
2022-09-15T07:39:55.786Z,55.60
2022-09-15T07:42:22.453Z,55.60
2022-09-15T07:44:49.111Z,55.50
2022-09-15T07:47:15.736Z,55.60
2022-09-15T07:49:43.387Z,55.50
2022-09-15T07:52:10.116Z,55.60
2022-09-15T07:54:36.853Z,55.50
2022-09-15T07:57:05.866Z,55.40
2022-09-15T07:59:32.927Z,55.30
2022-09-15T08:01:59.625Z,55.10
2022-09-15T08:04:26.389Z,54.80
2022-09-15T08:06:53.076Z,54.60
2022-09-15T08:09:19.982Z,54.40
2022-09-15T08:11:46.638Z,54.50
2022-09-15T08:14:13.347Z,54.50
2022-09-15T08:16:40.043Z,54.40
2022-09-15T08:19:06.787Z,54.40
2022-09-15T08:21:33.436Z,54.40
2022-09-15T08:24:00.656Z,54.50
2022-09-15T08:26:28.111Z,54.40
2022-09-15T08:28:54.811Z,54.50
2022-09-15T08:31:21.670Z,54.50
2022-09-15T08:33:49.343Z,54.60
2022-09-15T08:36:16.023Z,54.70
2022-09-15T08:38:43.644Z,54.70
2022-09-15T08:41:13.324Z,54.80
2022-09-15T08:43:47.741Z,54.70
2022-09-15T08:46:16.122Z,54.80
2022-09-15T08:48:45.472Z,54.80
2022-09-15T08:51:14.231Z,54.80
2022-09-15T08:53:45.743Z,54.80
2022-09-15T08:56:18.116Z,54.80
2022-09-15T08:58:45.083Z,54.80
2022-09-15T09:01:12.191Z,54.80
2022-09-15T09:03:58.212Z,54.80
2022-09-15T09:06:30.889Z,54.80
2022-09-15T09:09:03.393Z,54.80
2022-09-15T09:11:48.886Z,54.90
2022-09-15T09:14:27.855Z,54.80
2022-09-15T09:17:03.869Z,54.80
2022-09-15T09:19:52.781Z,54.80
2022-09-15T09:22:23.382Z,54.60
2022-09-15T09:24:53.633Z,54.30
2022-09-15T09:27:20.858Z,54.10
2022-09-15T09:29:51.090Z,53.70
2022-09-15T09:32:24.581Z,53.50
2022-09-15T09:34:54.444Z,53.50
2022-09-15T09:37:21.084Z,53.40
2022-09-15T09:39:48.144Z,53.50
2022-09-15T09:42:15.837Z,53.60
2022-09-15T09:44:42.513Z,53.60
2022-09-15T09:47:11.637Z,53.80
2022-09-15T09:49:49.770Z,53.80
2022-09-15T09:52:35.940Z,54.20
2022-09-15T09:55:19.665Z,54.30
2022-09-15T09:57:46.342Z,54.40
2022-09-15T10:00:32.045Z,54.40
2022-09-15T10:02:58.749Z,54.40
2022-09-15T10:05:25.379Z,54.50
2022-09-15T10:07:52.118Z,54.40
2022-09-15T10:10:22.869Z,54.50
2022-09-15T10:12:49.752Z,54.40
2022-09-15T10:15:23.858Z,54.40
2022-09-15T10:17:50.598Z,54.50
2022-09-15T10:20:38.926Z,54.40
2022-09-15T10:23:14.894Z,54.40
2022-09-15T10:26:09.515Z,54.30
2022-09-15T10:28:28.337Z,54.00
2022-09-15T10:30:59.358Z,53.60
2022-09-15T10:33:27.453Z,53.40
2022-09-15T10:35:54.776Z,53.70
2022-09-15T10:38:41.320Z,53.20
2022-09-15T10:41:27.440Z,53.20
2022-09-15T10:43:55.196Z,53.20
2022-09-15T10:46:29.085Z,53.50
2022-09-15T10:48:59.246Z,53.50
2022-09-15T10:51:51.761Z,53.40
2022-09-15T10:54:29.388Z,53.40
2022-09-15T10:57:03.957Z,53.30
2022-09-15T10:59:43.475Z,53.40
2022-09-15T11:02:16.516Z,53.30
2022-09-15T11:04:43.282Z,53.60
2022-09-15T11:07:19.594Z,53.50
2022-09-15T11:10:04.756Z,53.50
2022-09-15T11:12:41.351Z,53.70
2022-09-15T11:15:08.139Z,53.70
2022-09-15T11:17:46.235Z,53.80
2022-09-15T11:20:28.324Z,53.70
2022-09-15T11:23:11.258Z,53.80
2022-09-15T11:25:40.622Z,53.70
2022-09-15T11:28:10.360Z,53.40
2022-09-15T11:30:38.307Z,53.30
2022-09-15T11:33:05.470Z,53.10
2022-09-15T11:35:54.423Z,52.70
2022-09-15T11:38:40.622Z,52.60
2022-09-15T11:41:07.294Z,52.50
2022-09-15T11:43:35.081Z,52.70
2022-09-15T11:46:02.116Z,52.80
2022-09-15T11:48:31.910Z,52.70
2022-09-15T11:50:59.514Z,52.80
2022-09-15T11:53:27.432Z,53.00
2022-09-15T11:56:01.767Z,52.90
2022-09-15T11:58:34.524Z,53.10
2022-09-15T12:01:04.332Z,53.10
2022-09-15T12:03:34.252Z,53.30
2022-09-15T12:06:02.645Z,53.20
2022-09-15T12:08:32.481Z,53.20
2022-09-15T12:10:59.877Z,53.20
2022-09-15T12:13:26.540Z,53.20
2022-09-15T12:15:53.453Z,53.80
2022-09-15T12:18:43.882Z,53.20
2022-09-15T12:21:26.015Z,53.20
2022-09-15T12:23:53.163Z,53.20
2022-09-15T12:26:20.901Z,53.20
2022-09-15T12:28:50.881Z,53.30
2022-09-15T12:31:23.769Z,52.80
2022-09-15T12:34:03.967Z,52.60
2022-09-15T12:36:38.881Z,52.30
2022-09-15T12:39:26.778Z,52.20
2022-09-15T12:41:54.221Z,52.00
2022-09-15T12:44:30.185Z,52.30
2022-09-15T12:46:57.038Z,52.30
2022-09-15T12:49:27.878Z,52.30
2022-09-15T12:51:54.527Z,52.30
2022-09-15T12:54:26.540Z,52.40
2022-09-15T12:56:53.491Z,52.30
2022-09-15T12:59:22.147Z,52.50
2022-09-15T13:01:49.627Z,52.60
2022-09-15T13:04:35.217Z,52.60
2022-09-15T13:07:17.334Z,52.70
2022-09-15T13:09:57.256Z,52.60
2022-09-15T13:12:24.404Z,52.60
2022-09-15T13:14:51.767Z,52.70
2022-09-15T13:17:19.373Z,52.60
2022-09-15T13:19:46.758Z,52.60
2022-09-15T13:22:25.149Z,52.80
2022-09-15T13:24:59.080Z,52.60
2022-09-15T13:27:35.901Z,52.40
2022-09-15T13:30:05.650Z,52.30
2022-09-15T13:32:46.991Z,51.90
2022-09-15T13:35:26.685Z,51.70
2022-09-15T13:38:21.750Z,51.40
2022-09-15T13:40:59.656Z,51.10
2022-09-15T13:43:30.993Z,51.10
2022-09-15T13:45:57.720Z,51.20
2022-09-15T13:48:24.841Z,51.40
2022-09-15T13:51:04.226Z,51.60
2022-09-15T13:53:34.471Z,51.60
2022-09-15T13:56:02.228Z,51.70
2022-09-15T14:01:17.260Z,51.80
2022-09-15T14:03:49.038Z,51.90
2022-09-15T14:06:15.798Z,52.00
2022-09-15T14:08:42.915Z,51.90
2022-09-15T14:11:13.719Z,52.10
2022-09-15T14:13:47.144Z,51.90
2022-09-15T14:16:19.904Z,52.10
2022-09-15T14:18:46.840Z,52.00
2022-09-15T14:21:17.994Z,52.00
2022-09-15T14:23:48.047Z,52.00
2022-09-15T14:26:15.410Z,51.90
2022-09-15T14:28:42.248Z,52.00
2022-09-15T14:31:08.888Z,51.80
2022-09-15T14:33:38.099Z,51.50
2022-09-15T14:36:23.985Z,51.20
2022-09-15T14:39:09.400Z,51.10
2022-09-15T14:41:36.645Z,50.50
2022-09-15T14:45:52.316Z,50.60
2022-09-15T14:47:14.006Z,50.60
2022-09-15T14:49:40.637Z,51.10
2022-09-15T14:52:12.573Z,51.10
2022-09-15T14:54:39.224Z,51.00
2022-09-15T14:57:05.866Z,51.20
2022-09-15T14:59:35.572Z,51.20
2022-09-15T15:02:11.990Z,51.20
2022-09-15T15:04:40.010Z,51.50
2022-09-15T15:07:26.106Z,51.60
2022-09-15T15:09:56.703Z,51.60
2022-09-15T15:12:24.490Z,51.70
2022-09-15T15:14:54.389Z,51.80
2022-09-15T15:17:25.420Z,51.80
2022-09-15T15:19:57.763Z,51.80
2022-09-15T15:22:24.568Z,51.90
2022-09-15T15:24:51.750Z,51.90
2022-09-15T15:27:24.544Z,51.90
2022-09-15T15:29:51.817Z,52.00
2022-09-15T15:32:21.898Z,51.90
2022-09-15T15:34:49.135Z,51.80
2022-09-15T15:37:24.230Z,51.70
2022-09-15T15:39:50.924Z,51.40
2022-09-15T15:42:17.620Z,51.10
2022-09-15T15:45:03.146Z,51.30
2022-09-15T15:47:35.197Z,51.10
2022-09-15T15:50:13.711Z,51.10
2022-09-15T15:52:41.631Z,51.10
2022-09-15T15:55:08.380Z,51.20
2022-09-15T15:57:37.052Z,51.40
2022-09-15T16:00:04.241Z,51.40
2022-09-15T16:02:31.059Z,51.40
2022-09-15T16:04:57.780Z,51.20
2022-09-15T16:07:27.864Z,51.30
2022-09-15T16:09:56.672Z,51.00
2022-09-15T16:12:23.336Z,51.40
2022-09-15T16:14:50.008Z,51.30
2022-09-15T16:17:16.656Z,51.00
2022-09-15T16:19:43.305Z,51.30
2022-09-15T16:22:11.141Z,51.20
2022-09-15T16:24:37.791Z,51.00
2022-09-15T16:27:05.362Z,51.10
2022-09-15T16:29:36.263Z,51.20
2022-09-15T16:32:03.275Z,50.70
2022-09-15T16:34:29.937Z,50.80
2022-09-15T16:36:57.056Z,50.60
2022-09-15T16:39:23.798Z,50.40
2022-09-15T16:41:50.527Z,50.80
2022-09-15T16:44:18.078Z,50.20
2022-09-15T16:46:50.217Z,49.70
2022-09-15T16:49:17.454Z,49.90
2022-09-15T16:51:44.131Z,49.90
2022-09-15T16:54:17.912Z,50.30
2022-09-15T16:56:45.311Z,50.20
2022-09-15T16:59:12.219Z,50.30
2022-09-15T17:01:39.082Z,50.40
2022-09-15T17:04:09.556Z,50.50
2022-09-15T17:06:36.277Z,50.60
2022-09-15T17:09:02.962Z,50.70
2022-09-15T17:11:29.739Z,50.80
2022-09-15T17:13:56.391Z,50.80
2022-09-15T17:16:23.065Z,50.90
2022-09-15T17:18:49.772Z,50.90
2022-09-15T17:21:16.863Z,51.00
2022-09-15T17:23:44.558Z,51.10
2022-09-15T17:26:21.564Z,51.30
2022-09-15T17:28:48.307Z,51.30
2022-09-15T17:31:15.876Z,51.30
2022-09-15T17:33:42.715Z,51.20
2022-09-15T17:36:09.411Z,51.50
2022-09-15T17:38:36.066Z,51.00
2022-09-15T17:41:02.819Z,51.00
2022-09-15T17:43:29.981Z,50.40
2022-09-15T17:45:56.763Z,50.50
2022-09-15T17:48:23.841Z,50.40
2022-09-15T17:50:50.550Z,50.60
2022-09-15T17:53:18.098Z,50.60
2022-09-15T17:55:44.764Z,50.70
2022-09-15T17:58:11.512Z,50.70
2022-09-15T18:00:38.622Z,50.70
2022-09-15T18:03:09.536Z,50.90
2022-09-15T18:05:36.415Z,51.00
2022-09-15T18:08:04.014Z,50.90
2022-09-15T18:10:31.111Z,51.10
2022-09-15T18:12:57.852Z,51.30
2022-09-15T18:15:26.087Z,51.20
2022-09-15T18:17:53.671Z,51.40
2022-09-15T18:20:21.407Z,51.40
2022-09-15T18:22:48.189Z,51.70
2022-09-15T18:25:15.732Z,51.90
2022-09-15T18:27:42.367Z,52.00
2022-09-15T18:30:09.446Z,52.10
2022-09-15T18:32:36.104Z,52.30
2022-09-15T18:35:02.779Z,52.50
2022-09-15T18:37:29.696Z,52.20
2022-09-15T18:39:56.601Z,51.90
2022-09-15T18:42:27.195Z,51.80
2022-09-15T18:44:57.155Z,51.60
2022-09-15T18:47:24.402Z,51.30
2022-09-15T18:49:52.463Z,51.20
2022-09-15T18:52:19.521Z,51.30
2022-09-15T18:54:46.547Z,51.30
2022-09-15T18:57:13.851Z,51.40
2022-09-15T18:59:44.213Z,51.40
2022-09-15T19:02:17.377Z,51.50
2022-09-15T19:04:44.528Z,51.60
2022-09-15T19:07:12.845Z,51.60
2022-09-15T19:09:41.070Z,51.70
2022-09-15T19:12:08.260Z,51.80
2022-09-15T19:14:35.538Z,52.00
2022-09-15T19:17:02.690Z,52.00
2022-09-15T19:19:30.044Z,52.00
2022-09-15T19:21:56.964Z,52.10
2022-09-15T19:24:24.065Z,52.10
2022-09-15T19:26:50.826Z,52.10
2022-09-15T19:29:17.959Z,52.20
2022-09-15T19:31:44.855Z,52.20
2022-09-15T19:34:11.661Z,52.30
2022-09-15T19:36:38.466Z,52.20
2022-09-15T19:39:05.421Z,52.30
2022-09-15T19:41:32.128Z,52.40
2022-09-15T19:44:00.481Z,52.40
2022-09-15T19:46:27.352Z,52.50
2022-09-15T19:48:54.063Z,52.40
2022-09-15T19:51:20.893Z,52.30
2022-09-15T19:53:47.678Z,52.10
2022-09-15T19:56:15.148Z,51.90
2022-09-15T19:58:41.817Z,51.50
2022-09-15T20:01:09.325Z,51.20
2022-09-15T20:03:36.109Z,51.10
2022-09-15T20:06:04.316Z,51.10
2022-09-15T20:08:32.198Z,51.20
2022-09-15T20:10:58.854Z,51.30
2022-09-15T20:13:25.544Z,51.20
2022-09-15T20:15:59.141Z,51.40
2022-09-15T20:18:26.389Z,51.50
2022-09-15T20:20:53.264Z,51.50
2022-09-15T20:23:20.425Z,51.70
2022-09-15T20:25:59.739Z,51.70
2022-09-15T20:28:26.590Z,51.80
2022-09-15T20:31:00.704Z,51.90
2022-09-15T20:33:27.551Z,51.90
2022-09-15T20:35:54.273Z,52.00
2022-09-15T20:38:21.149Z,52.00
2022-09-15T20:40:47.818Z,52.10
2022-09-15T20:43:14.457Z,52.00
2022-09-15T20:45:41.171Z,52.00
2022-09-15T20:48:07.898Z,52.10
2022-09-15T20:50:34.514Z,52.00
2022-09-15T20:53:01.153Z,52.20
2022-09-15T20:55:27.883Z,52.20
2022-09-15T20:57:54.517Z,52.20
2022-09-15T21:00:21.160Z,52.20
2022-09-15T21:02:50.933Z,52.20
2022-09-15T21:05:17.590Z,52.20
2022-09-15T21:07:44.256Z,52.20
2022-09-15T21:10:10.902Z,52.00
2022-09-15T21:12:37.574Z,51.80
2022-09-15T21:15:04.439Z,51.50
2022-09-15T21:17:31.117Z,51.20
2022-09-15T21:19:57.806Z,51.10
2022-09-15T21:22:24.459Z,51.10
2022-09-15T21:24:51.101Z,51.10
2022-09-15T21:27:26.996Z,51.10
2022-09-15T21:29:54.294Z,51.10
2022-09-15T21:32:21.140Z,51.20
2022-09-15T21:34:48.244Z,51.30
2022-09-15T21:37:14.900Z,51.30
2022-09-15T21:39:41.548Z,51.40
2022-09-15T21:42:08.354Z,51.50
2022-09-15T21:44:35.013Z,51.60
2022-09-15T21:47:01.657Z,51.80
2022-09-15T21:49:28.279Z,51.70
2022-09-15T21:51:54.968Z,51.70
2022-09-15T21:54:21.713Z,51.80
2022-09-15T21:56:48.367Z,51.70
2022-09-15T21:59:16.036Z,51.90
2022-09-15T22:01:42.815Z,51.90
2022-09-15T22:04:10.451Z,52.00
2022-09-15T22:06:40.133Z,51.90
2022-09-15T22:09:10.933Z,52.70
2022-09-15T22:11:37.572Z,52.00
2022-09-15T22:14:04.345Z,52.00
2022-09-15T22:16:31.063Z,52.10
2022-09-15T22:18:57.817Z,52.00
2022-09-15T22:21:28.681Z,52.00
2022-09-15T22:23:55.966Z,52.00
2022-09-15T22:26:24.107Z,52.00
2022-09-15T22:28:50.750Z,51.80
2022-09-15T22:31:17.975Z,51.50
2022-09-15T22:33:44.775Z,51.20
2022-09-15T22:36:15.329Z,51.10
2022-09-15T22:38:41.974Z,51.00
2022-09-15T22:41:09.369Z,50.90
2022-09-15T22:43:36.481Z,51.10
2022-09-15T22:46:03.186Z,51.00
2022-09-15T22:48:30.003Z,51.10
2022-09-15T22:50:56.755Z,51.20
2022-09-15T22:53:23.619Z,51.30
2022-09-15T22:55:50.625Z,51.30
2022-09-15T22:58:17.419Z,51.40
2022-09-15T23:00:44.216Z,51.50
2022-09-15T23:03:11.066Z,51.50
2022-09-15T23:05:37.779Z,51.60
2022-09-15T23:08:04.539Z,51.70
2022-09-15T23:10:34.283Z,51.70
2022-09-15T23:13:01.019Z,51.70
2022-09-15T23:15:28.832Z,51.80
2022-09-15T23:17:55.629Z,51.90
2022-09-15T23:20:22.344Z,51.80
2022-09-15T23:22:49.068Z,51.90
2022-09-15T23:25:15.749Z,51.90
2022-09-15T23:27:42.597Z,51.90
2022-09-15T23:30:09.600Z,51.90
2022-09-15T23:32:37.017Z,52.00
2022-09-15T23:35:03.757Z,51.90
2022-09-15T23:37:30.560Z,51.80
2022-09-15T23:39:57.497Z,51.90
2022-09-15T23:42:24.296Z,51.90
2022-09-15T23:44:50.947Z,51.70
2022-09-15T23:47:17.597Z,51.50
2022-09-15T23:49:44.300Z,51.20
2022-09-15T23:52:11.028Z,51.00
2022-09-15T23:54:37.704Z,50.80
2022-09-15T23:57:04.469Z,50.80
2022-09-15T23:59:31.256Z,51.00
